Time;durP1;ratioP1;P1;durP2;ratioP2;P2;SDS_P1;SDS_P2;PMS_P1;PMS_P2;Temp;Humidity;BMP_temperature;BMP_pressure;BME280_temperature;BME280_humidity;BME280_pressure;Samples;Min_cycle;Max_cycle;Signal;HPM_P1;HPM_P2
2022/04/28 00:00:11;;;;;;;;;38.25;34.25;;;;;16.44;58.10;102118.03;5099714;27;45448;-81
2022/04/28 00:02:36;;;;;;;;;35.25;31.25;;;;;16.40;58.90;102120.53;5099664;27;46475;-81
2022/04/28 00:05:04;;;;;;;;;34.50;28.50;;;;;16.39;58.70;102117.84;5099281;27;45301;-82
2022/04/28 00:07:30;;;;;;;;;34.00;25.75;;;;;16.35;59.28;102110.69;5099469;27;45452;-81
2022/04/28 00:09:56;;;;;;;;;34.50;27.75;;;;;16.31;58.86;102114.00;5097676;27;45379;-82
2022/04/28 00:12:22;;;;;;;;;33.50;28.75;;;;;16.31;58.60;102116.63;5098993;27;46229;-81
2022/04/28 00:14:47;;;;;;;;;31.25;26.50;;;;;16.25;59.33;102114.66;5098911;27;45271;-81
2022/04/28 00:17:13;;;;;;;;;31.25;28.50;;;;;16.20;59.34;102117.06;5099265;27;45338;-81
2022/04/28 00:19:39;;;;;;;;;33.75;31.00;;;;;16.15;59.40;102115.97;5099380;27;45336;-81
2022/04/28 00:22:05;;;;;;;;;32.75;29.00;;;;;16.14;59.56;102119.41;5098949;27;46016;-81
2022/04/28 00:24:31;;;;;;;;;30.75;29.25;;;;;16.13;59.41;102116.75;5098871;27;45317;-81
2022/04/28 00:26:57;;;;;;;;;34.75;29.25;;;;;16.04;59.46;102091.13;5098908;27;45349;-81
2022/04/28 00:29:22;;;;;;;;;32.75;31.50;;;;;16.04;59.67;102104.19;5082538;27;45298;-82
2022/04/28 00:31:48;;;;;;;;;38.00;33.00;;;;;16.01;59.71;102097.09;5103958;27;47972;-81
2022/04/28 00:34:14;;;;;;;;;34.50;32.00;;;;;16.03;60.02;102112.84;5105626;27;45265;-81
2022/04/28 00:36:43;;;;;;;;;33.00;30.00;;;;;15.98;59.97;102104.81;5101972;27;45347;-80
2022/04/28 00:39:08;;;;;;;;;32.75;29.50;;;;;15.93;60.50;102102.00;5102068;27;45607;-80
2022/04/28 00:41:34;;;;;;;;;38.75;31.50;;;;;15.94;60.50;102113.31;5101466;27;45554;-81
2022/04/28 00:44:00;;;;;;;;;35.25;30.25;;;;;15.93;60.73;102111.53;5099967;27;45249;-79
2022/04/28 00:46:26;;;;;;;;;35.50;30.00;;;;;15.89;60.86;102112.25;5098186;27;45247;-79
2022/04/28 00:51:37;;;;;;;;;34.25;28.25;;;;;15.90;60.68;102108.81;5098778;27;45425;-81
2022/04/28 00:54:04;;;;;;;;;32.25;29.25;;;;;15.71;61.29;102104.44;5080221;27;45837;-80
2022/04/28 00:56:31;;;;;;;;;33.00;28.75;;;;;15.79;61.56;102121.34;5098814;27;45323;-79
2022/04/28 00:59:02;;;;;;;;;32.75;31.00;;;;;15.76;61.52;102114.28;5099240;27;45400;-80
2022/04/28 01:01:29;;;;;;;;;28.75;26.75;;;;;15.71;61.08;102115.78;5099514;27;46317;-81
2022/04/28 01:03:55;;;;;;;;;34.00;27.75;;;;;15.66;61.63;102108.59;5097556;27;45519;-80
2022/04/28 01:06:21;;;;;;;;;33.50;30.50;;;;;15.61;62.24;102108.34;5098982;27;45456;-81
2022/04/28 01:08:48;;;;;;;;;33.75;31.50;;;;;15.48;62.40;102094.78;5099273;27;45428;-80
2022/04/28 01:11:16;;;;;;;;;28.75;28.25;;;;;15.54;62.39;102112.44;5098960;27;45732;-80
2022/04/28 01:13:43;;;;;;;;;27.25;27.25;;;;;15.50;61.96;102110.50;5098401;27;45846;-80
2022/04/28 01:16:08;;;;;;;;;28.50;25.25;;;;;15.39;62.71;102090.84;5103366;27;45364;-81
2022/04/28 01:18:35;;;;;;;;;35.00;30.25;;;;;15.29;62.38;102090.44;5104085;27;45242;-81
2022/04/28 01:21:07;;;;;;;;;28.00;25.50;;;;;15.38;62.93;102099.50;5099156;27;46918;-81
2022/04/28 01:23:34;;;;;;;;;27.25;25.25;;;;;15.38;62.80;102100.41;5098827;27;45292;-81
2022/04/28 01:26:00;;;;;;;;;33.75;28.50;;;;;15.29;62.91;102092.13;5099144;27;45428;-81
2022/04/28 01:28:31;;;;;;;;;25.75;24.25;;;;;15.36;62.85;102103.75;5098932;27;45518;-81
2022/04/28 01:31:00;;;;;;;;;28.00;27.00;;;;;15.31;63.70;102099.22;5098013;27;45956;-81
2022/04/28 01:33:26;;;;;;;;;27.00;25.00;;;;;15.27;63.24;102092.06;5098027;27;45796;-78
2022/04/28 01:35:51;;;;;;;;;27.75;27.25;;;;;15.29;63.56;102092.13;5097732;27;45423;-78
2022/04/28 01:38:18;;;;;;;;;29.50;27.00;;;;;15.30;63.34;102096.53;5098231;27;45507;-81
2022/04/28 01:40:44;;;;;;;;;27.00;25.50;;;;;15.22;63.55;102088.38;5097578;27;46352;-78
2022/04/28 01:43:09;;;;;;;;;29.50;28.00;;;;;15.30;63.56;102106.97;5097685;27;45871;-78
2022/04/28 01:45:35;;;;;;;;;29.00;23.00;;;;;15.21;63.14;102088.28;5096607;27;45288;-79
2022/04/28 01:48:01;;;;;;;;;29.00;25.00;;;;;15.17;63.58;102092.47;5097578;27;45279;-78
2022/04/28 01:50:27;;;;;;;;;26.50;24.25;;;;;15.23;63.56;102099.69;5096096;27;46996;-81
2022/04/28 01:55:36;;;;;;;;;24.25;21.00;;;;;15.19;63.89;102100.34;5098139;27;45333;-79
2022/04/28 01:58:02;;;;;;;;;25.50;22.50;;;;;15.13;63.79;102104.47;5096265;27;45481;-79
2022/04/28 02:00:29;;;;;;;;;23.25;21.75;;;;;15.11;64.15;102105.22;5101861;27;46030;-80
2022/04/28 02:02:55;;;;;;;;;27.00;23.75;;;;;15.11;63.85;102092.19;5103989;27;45363;-80
2022/04/28 02:05:21;;;;;;;;;30.50;27.50;;;;;15.17;63.66;102101.16;5098522;27;45444;-81
2022/04/28 02:07:47;;;;;;;;;28.00;21.75;;;;;15.08;64.24;102098.13;5098185;27;45470;-78
2022/04/28 02:10:12;;;;;;;;;31.00;25.50;;;;;15.06;63.61;102105.03;5097459;27;46307;-81
2022/04/28 02:12:38;;;;;;;;;27.00;24.75;;;;;15.03;64.40;102099.66;5097513;27;45341;-81
2022/04/28 02:15:04;;;;;;;;;26.00;21.25;;;;;15.01;63.95;102103.88;5097063;27;45377;-79
2022/04/28 02:17:35;;;;;;;;;27.75;26.75;;;;;15.05;63.79;102121.50;5097470;27;45570;-81
2022/04/28 02:20:06;;;;;;;;;32.25;28.00;;;;;15.01;64.16;102120.41;5096999;27;45387;-82
2022/04/28 02:22:32;;;;;;;;;28.00;22.75;;;;;14.99;64.25;102115.97;5097046;27;45296;-81
2022/04/28 02:24:58;;;;;;;;;26.00;24.50;;;;;14.99;64.02;102109.03;5095524;27;45421;-82
2022/04/28 02:27:24;;;;;;;;;25.75;23.50;;;;;14.95;64.43;102107.09;5097330;27;45514;-81
2022/04/28 02:29:51;;;;;;;;;30.25;25.25;;;;;14.99;64.64;102116.88;5096461;27;46072;-78
2022/04/28 02:32:17;;;;;;;;;22.25;22.25;;;;;14.98;64.27;102120.28;5096909;27;45888;-78
2022/04/28 02:34:42;;;;;;;;;29.50;23.00;;;;;14.95;64.53;102127.09;5095294;27;45358;-79
2022/04/28 02:37:08;;;;;;;;;25.25;20.75;;;;;14.86;64.23;102117.09;5097485;27;45262;-80
2022/04/28 02:39:34;;;;;;;;;25.00;23.25;;;;;14.89;64.30;102118.94;5096730;27;46376;-78
2022/04/28 02:42:00;;;;;;;;;27.25;24.75;;;;;14.80;64.77;102119.38;5096664;27;45305;-79
2022/04/28 02:44:26;;;;;;;;;26.50;25.50;;;;;14.76;65.30;102128.78;5098054;27;45256;-78
2022/04/28 02:46:51;;;;;;;;;29.50;26.00;;;;;14.81;64.84;102129.91;5100879;27;45428;-79
2022/04/28 02:49:17;;;;;;;;;27.75;24.75;;;;;14.81;65.20;102126.41;5103910;27;45267;-81
2022/04/28 02:51:43;;;;;;;;;29.00;25.25;;;;;14.70;65.07;102123.28;5101987;27;45259;-80
2022/04/28 02:54:09;;;;;;;;;27.75;26.50;;;;;14.67;65.53;102123.13;5096314;27;45443;-80
2022/04/28 02:56:36;;;;;;;;;26.75;23.75;;;;;14.73;65.41;102130.34;5096061;27;45386;-81
2022/04/28 02:59:02;;;;;;;;;26.00;23.75;;;;;14.66;64.91;102140.44;5096566;27;45486;-81
2022/04/28 03:01:27;;;;;;;;;24.50;23.25;;;;;14.61;66.09;102141.03;5096645;27;45366;-78
2022/04/28 03:03:54;;;;;;;;;32.75;26.25;;;;;14.54;66.01;102142.44;5096458;27;45271;-79
2022/04/28 03:11:51;;;;;;;;;24.50;22.50;;;;;14.38;66.52;102126.03;5096404;27;45437;-81
2022/04/28 03:14:17;;;;;;;;;31.00;26.25;;;;;14.46;66.49;102138.56;5096722;27;45305;-80
2022/04/28 03:16:43;;;;;;;;;29.50;25.50;;;;;14.37;66.57;102128.56;5096602;27;45355;-78
2022/04/28 03:19:09;;;;;;;;;26.25;26.00;;;;;14.43;66.92;102146.22;5098905;27;45924;-78
2022/04/28 03:21:35;;;;;;;;;31.75;29.25;;;;;14.36;67.20;102132.88;5100485;27;45291;-81
2022/04/28 03:24:01;;;;;;;;;28.00;24.25;;;;;14.38;67.39;102141.66;5100386;27;45317;-81
2022/04/28 03:26:28;;;;;;;;;25.25;24.75;;;;;14.35;67.23;102138.00;5100361;27;45566;-79
2022/04/28 03:28:55;;;;;;;;;33.00;28.75;;;;;14.32;67.43;102132.63;5100560;27;46569;-81
2022/04/28 03:31:22;;;;;;;;;28.75;26.75;;;;;14.29;67.53;102141.19;5107781;27;45421;-82
2022/04/28 03:33:47;;;;;;;;;29.00;25.50;;;;;14.14;67.78;102130.00;5105024;27;45289;-81
2022/04/28 03:38:57;;;;;;;;;28.50;25.75;;;;;14.14;68.36;102138.72;5099660;27;45677;-80
2022/04/28 03:41:24;;;;;;;;;22.25;21.50;;;;;14.14;69.07;102143.91;5100377;27;45292;-80
2022/04/28 03:43:50;;;;;;;;;29.75;27.25;;;;;14.04;68.53;102137.31;5100355;27;45358;-80
2022/04/28 03:46:16;;;;;;;;;28.50;28.00;;;;;14.14;68.96;102154.34;5100685;27;45615;-79
2022/04/28 03:48:42;;;;;;;;;25.00;23.75;;;;;14.08;69.22;102138.41;5099055;27;45563;-78
2022/04/28 03:51:08;;;;;;;;;32.00;27.00;;;;;14.11;68.68;102150.69;5099914;27;46022;-79
2022/04/28 03:53:33;;;;;;;;;30.00;25.00;;;;;13.98;69.19;102128.31;5099398;27;45317;-80
2022/04/28 03:55:59;;;;;;;;;36.50;30.00;;;;;13.99;69.15;102130.09;5099539;27;46031;-78
2022/04/28 03:58:25;;;;;;;;;34.00;27.00;;;;;14.02;69.43;102146.78;5099177;27;45351;-78
2022/04/28 04:00:52;;;;;;;;;29.00;24.00;;;;;14.05;69.86;102146.06;5099065;27;45329;-78
2022/04/28 04:03:20;;;;;;;;;31.75;29.75;;;;;14.03;69.23;102155.50;5099280;27;45322;-77
2022/04/28 04:05:46;;;;;;;;;29.50;26.50;;;;;13.90;69.68;102134.00;5099038;27;45453;-78
2022/04/28 04:08:13;;;;;;;;;33.75;28.50;;;;;13.95;69.52;102155.06;5098868;27;45917;-78
2022/04/28 04:10:38;;;;;;;;;29.25;27.00;;;;;13.92;70.58;102153.22;5099212;27;45849;-80
2022/04/28 04:13:04;;;;;;;;;34.00;30.00;;;;;13.93;70.18;102157.63;5098814;27;45224;-78
2022/04/28 04:15:30;;;;;;;;;32.25;25.75;;;;;13.89;70.35;102142.63;5102130;27;45349;-78
2022/04/28 04:17:56;;;;;;;;;35.75;32.50;;;;;13.93;70.82;102160.22;5105994;27;45870;-79
2022/04/28 04:20:21;;;;;;;;;33.00;28.75;;;;;13.90;70.17;102153.97;5100489;27;46064;-79
2022/04/28 04:22:47;;;;;;;;;36.75;30.00;;;;;13.86;69.90;102154.59;5100219;27;45333;-80
2022/04/28 04:25:13;;;;;;;;;30.25;27.75;;;;;13.85;70.83;102158.00;5099290;27;45541;-79
2022/04/28 04:27:38;;;;;;;;;29.25;28.00;;;;;13.91;70.58;102168.75;5099340;27;45380;-79
2022/04/28 04:32:17;;;;;;;;;33.25;29.75;;;;;13.89;71.29;102170.38;5097409;27;45226;-79
2022/04/28 04:32:51;;;;;;;;;30.00;28.00;;;;;13.97;70.58;102173.41;5079622;27;45256;-79
2022/04/28 04:35:17;;;;;;;;;31.25;28.00;;;;;14.00;70.73;102174.47;5078140;27;45350;-78
2022/04/28 04:37:43;;;;;;;;;32.00;27.00;;;;;13.96;70.45;102164.69;5077824;27;45349;-78
2022/04/28 04:40:13;;;;;;;;;35.25;31.00;;;;;14.02;70.29;102172.84;5078352;28;45878;-81
2022/04/28 04:42:39;;;;;;;;;35.50;31.00;;;;;13.96;70.40;102158.59;5078065;27;45329;-80
2022/04/28 04:45:09;;;;;;;;;37.50;32.25;;;;;14.02;70.54;102182.34;5078543;28;45249;-78
2022/04/28 04:47:36;;;;;;;;;38.75;33.25;;;;;14.02;70.45;102175.44;5076699;27;45533;-80
2022/04/28 04:50:02;;;;;;;;;37.50;32.25;;;;;14.01;70.89;102176.25;5077869;27;45826;-79
2022/04/28 04:52:28;;;;;;;;;37.25;32.75;;;;;14.04;70.48;102176.38;5077469;27;45323;-79
2022/04/28 04:54:54;;;;;;;;;32.25;30.00;;;;;14.06;70.62;102179.09;5077974;28;45303;-80
2022/04/28 04:57:19;;;;;;;;;32.50;29.00;;;;;13.99;70.72;102164.84;5078015;28;45918;-78
2022/04/28 04:59:45;;;;;;;;;39.00;30.75;;;;;13.99;70.43;102161.34;5084274;27;45408;-79
2022/04/28 05:02:11;;;;;;;;;33.00;27.50;;;;;14.03;70.21;102161.59;5085778;28;45337;-76
2022/04/28 05:04:36;;;;;;;;;31.75;30.75;;;;;14.14;70.02;102182.09;5079136;27;45446;-80
2022/04/28 05:07:02;;;;;;;;;28.00;21.50;;;;;14.17;70.31;102188.38;5076689;28;47129;-78
2022/04/28 05:09:27;;;;;;;;;36.50;32.00;;;;;14.11;70.11;102182.81;5077918;28;45411;-81
2022/04/28 05:11:53;;;;;;;;;34.75;29.25;;;;;14.18;69.96;102197.06;5077836;27;45295;-79
2022/04/28 05:14:18;;;;;;;;;34.00;30.00;;;;;14.18;69.70;102187.56;5077761;28;45634;-81
2022/04/28 05:16:44;;;;;;;;;34.00;30.00;;;;;14.20;70.25;102200.66;5077619;27;45900;-80
2022/04/28 05:19:10;;;;;;;;;35.75;32.25;;;;;14.22;69.96;102201.63;5077728;28;45328;-79
2022/04/28 05:21:35;;;;;;;;;37.25;33.00;;;;;14.22;69.90;102205.09;5076814;27;45339;-79
2022/04/28 05:24:01;;;;;;;;;32.25;29.50;;;;;14.18;69.92;102192.75;5077007;27;46078;-78
2022/04/28 05:26:26;;;;;;;;;34.75;31.75;;;;;14.20;69.95;102211.06;5076430;27;46611;-78
2022/04/28 05:28:52;;;;;;;;;42.75;33.50;;;;;14.18;69.93;102207.47;5073857;27;45343;-78
2022/04/28 05:31:18;;;;;;;;;35.25;31.75;;;;;14.07;70.36;102217.34;5076432;27;45423;-79
2022/04/28 05:33:43;;;;;;;;;40.50;32.25;;;;;14.05;70.63;102226.78;5077048;27;45325;-79
2022/04/28 05:36:11;;;;;;;;;38.00;31.75;;;;;13.96;70.67;102211.56;5075260;27;46317;-80
2022/04/28 05:38:37;;;;;;;;;42.00;34.25;;;;;14.02;70.93;102229.22;5075747;27;45875;-80
2022/04/28 05:41:07;;;;;;;;;33.75;31.00;;;;;14.03;71.22;102225.78;5076918;27;45406;-80
2022/04/28 05:46:18;;;;;;;;;44.50;35.50;;;;;13.97;71.06;102226.34;5084141;27;45441;-80
2022/04/28 05:48:45;;;;;;;;;42.00;30.75;;;;;14.04;70.63;102236.28;5079630;27;45400;-80
2022/04/28 05:51:12;;;;;;;;;39.75;32.75;;;;;13.97;70.94;102231.56;5077741;27;45388;-79
2022/04/28 05:53:40;;;;;;;;;39.00;30.50;;;;;13.99;70.94;102240.38;5077707;27;45537;-79
2022/04/28 05:56:07;;;;;;;;;42.25;35.75;;;;;13.93;70.76;102235.72;5074050;28;47514;-81
2022/04/28 05:58:32;;;;;;;;;42.25;35.00;;;;;13.88;71.44;102228.47;5076157;27;46738;-79
2022/04/28 06:00:59;;;;;;;;;38.75;33.00;;;;;13.82;71.06;102236.84;5077917;27;45334;-75
2022/04/28 06:03:25;;;;;;;;;32.25;29.50;;;;;13.76;72.53;102228.72;5077030;27;45621;-84
2022/04/28 06:05:51;;;;;;;;;39.25;33.75;;;;;13.84;71.50;102243.03;5076896;27;45527;-80
2022/04/28 06:08:17;;;;;;;;;31.50;30.25;;;;;13.80;71.95;102240.19;5076185;27;45471;-79
2022/04/28 06:10:42;;;;;;;;;36.75;30.50;;;;;13.76;72.60;102231.31;5077843;27;45380;-82
2022/04/28 06:13:08;;;;;;;;;37.75;31.25;;;;;13.80;72.27;102234.97;5076810;28;45493;-84
2022/04/28 06:15:34;;;;;;;;;40.00;32.25;;;;;13.73;72.36;102225.94;5078658;27;46066;-86
2022/04/28 06:18:00;;;;;;;;;40.25;33.50;;;;;13.55;72.60;102194.59;5076650;27;45524;-81
2022/04/28 06:20:26;;;;;;;;;38.75;31.00;;;;;13.86;72.63;102245.72;5078185;27;45503;-80
2022/04/28 06:22:51;;;;;;;;;37.50;30.00;;;;;13.94;72.79;102265.25;5076970;27;45626;-83
2022/04/28 06:25:17;;;;;;;;;36.75;30.75;;;;;13.97;72.42;102265.41;5076241;27;45483;-82
2022/04/28 06:27:43;;;;;;;;;37.25;32.25;;;;;13.98;73.07;102262.00;5077939;27;45325;-82
2022/04/28 06:30:09;;;;;;;;;38.75;34.00;;;;;13.97;72.88;102256.72;5086723;27;45444;-84
2022/04/28 06:32:35;;;;;;;;;42.25;34.75;;;;;14.05;72.66;102260.63;5081863;27;45447;-82
2022/04/28 06:35:04;;;;;;;;;38.25;34.00;;;;;14.12;72.38;102264.47;5077437;27;45503;-79
2022/04/28 06:37:31;;;;;;;;;36.00;30.75;;;;;14.13;72.39;102263.66;5078787;28;45454;-82
2022/04/28 06:39:56;;;;;;;;;35.00;31.50;;;;;14.27;72.48;102274.81;5078129;27;45175;-79
2022/04/28 06:42:22;;;;;;;;;42.50;33.25;;;;;14.22;72.02;102259.81;5077253;27;45436;-79
2022/04/28 06:44:48;;;;;;;;;41.75;33.00;;;;;14.24;72.16;102252.09;5075587;28;45615;-79
2022/04/28 06:47:14;;;;;;;;;37.25;32.75;;;;;14.40;71.17;102264.22;5076094;28;45418;-79
2022/04/28 06:49:40;;;;;;;;;43.75;35.50;;;;;14.48;71.87;102280.25;5078167;27;45292;-76
2022/04/28 06:52:06;;;;;;;;;41.25;34.50;;;;;14.42;71.11;102259.97;5076765;28;45578;-78
2022/04/28 06:54:32;;;;;;;;;43.75;35.25;;;;;14.57;71.17;102285.03;5073036;28;46160;-78
2022/04/28 06:57:02;;;;;;;;;40.00;32.75;;;;;14.45;70.81;102261.84;5075415;27;45507;-75
2022/04/28 06:59:28;;;;;;;;;45.00;34.50;;;;;14.62;71.10;102294.91;5071848;28;45518;-78
2022/04/28 07:01:55;;;;;;;;;41.50;35.00;;;;;14.68;71.13;102290.06;5073704;27;45307;-76
2022/04/28 07:04:21;;;;;;;;;42.00;33.50;;;;;14.47;71.11;102245.47;5076022;27;45552;-78
2022/04/28 07:06:47;;;;;;;;;45.00;35.75;;;;;14.81;70.63;102283.75;5091698;27;45452;-83
2022/04/28 07:09:13;;;;;;;;;37.75;32.50;;;;;14.89;70.38;102291.06;5077657;28;45471;-89
2022/04/28 07:11:39;;;;;;;;;43.75;35.25;;;;;14.96;70.49;102293.16;5079157;27;45490;-85
2022/04/28 07:14:05;;;;;;;;;40.25;33.75;;;;;14.71;70.25;102242.38;5077957;27;46407;-90
2022/04/28 07:16:31;;;;;;;;;44.50;36.00;;;;;15.03;70.37;102279.63;5083859;27;45420;-86
2022/04/28 07:18:57;;;;;;;;;43.25;35.50;;;;;15.16;69.96;102281.13;5081803;27;45427;-79
2022/04/28 07:21:23;;;;;;;;;47.00;38.00;;;;;14.92;69.31;102239.94;5078322;27;45544;-81
2022/04/28 07:23:51;;;;;;;;;42.25;36.00;;;;;15.32;69.39;102287.97;5077313;28;45395;-80
2022/04/28 07:26:17;;;;;;;;;42.25;34.25;;;;;15.23;68.78;102253.63;5076918;27;45901;-81
2022/04/28 07:28:43;;;;;;;;;39.75;32.75;;;;;15.53;68.49;102295.06;5085593;27;45353;-81
2022/04/28 07:31:09;;;;;;;;;40.00;34.50;;;;;15.50;68.22;102281.84;5087352;28;44904;-82
2022/04/28 07:33:35;;;;;;;;;42.50;34.75;;;;;15.39;68.16;102250.03;5079580;27;46127;-81
2022/04/28 07:36:00;;;;;;;;;38.00;34.25;;;;;15.62;67.65;102274.63;5081639;27;45335;-82
2022/04/28 07:38:26;;;;;;;;;43.25;34.25;;;;;15.54;67.22;102252.47;5076199;27;45518;-84
2022/04/28 07:40:54;;;;;;;;;42.50;36.25;;;;;15.76;67.67;102288.34;5078339;27;45398;-86
2022/04/28 07:43:20;;;;;;;;;42.75;34.50;;;;;15.61;67.29;102252.84;5075435;28;47713;-82
2022/04/28 07:45:46;;;;;;;;;42.00;34.25;;;;;15.79;67.42;102273.72;5077210;27;45645;-86
2022/04/28 07:48:13;;;;;;;;;46.75;37.00;;;;;15.87;67.18;102278.44;5076918;27;45396;-84
2022/04/28 07:50:39;;;;;;;;;38.50;33.00;;;;;15.94;66.90;102283.09;5077704;27;45596;-81
2022/04/28 07:53:05;;;;;;;;;44.00;37.25;;;;;16.06;66.57;102301.97;5075465;27;46102;-79
2022/04/28 07:55:31;;;;;;;;;44.00;34.25;;;;;15.77;66.06;102244.03;5076614;27;45856;-82
2022/04/28 07:57:56;;;;;;;;;44.25;32.50;;;;;16.07;66.22;102297.66;5079080;27;45379;-81
2022/04/28 08:00:22;;;;;;;;;44.75;34.50;;;;;16.22;66.45;102310.53;5077831;27;45608;-82
2022/04/28 08:02:48;;;;;;;;;42.75;33.75;;;;;16.31;66.00;102307.41;5082099;27;45322;-80
2022/04/28 08:05:15;;;;;;;;;39.00;33.75;;;;;16.21;66.01;102275.63;5082813;27;45200;-79
2022/04/28 08:07:41;;;;;;;;;42.25;34.25;;;;;16.36;64.83;102288.50;5081797;27;45271;-80
2022/04/28 08:10:07;;;;;;;;;40.00;33.00;;;;;16.33;64.79;102274.41;5078686;27;45540;-81
2022/04/28 08:12:36;;;;;;;;;42.00;34.50;;;;;16.56;64.93;102309.44;5081427;28;46243;-88
2022/04/28 08:15:02;;;;;;;;;42.50;35.50;;;;;16.66;64.67;102305.47;5082934;27;45314;-83
2022/04/28 08:17:28;;;;;;;;;42.75;35.50;;;;;16.44;64.15;102248.75;5082214;27;45409;-83
2022/04/28 08:19:53;;;;;;;;;41.75;35.50;;;;;16.43;64.28;102250.44;5081054;27;45414;-85
2022/04/28 08:22:19;;;;;;;;;44.75;36.25;;;;;16.74;63.87;102290.13;5081801;28;45421;-86
2022/04/28 08:24:48;;;;;;;;;40.75;35.25;;;;;16.56;64.29;102254.50;5081797;28;45336;-85
2022/04/28 08:27:13;;;;;;;;;37.50;34.25;;;;;16.95;64.03;102306.78;5091939;27;45428;-85
2022/04/28 08:29:39;;;;;;;;;37.00;32.25;;;;;16.62;64.55;102231.22;5096013;28;45438;-87
2022/04/28 08:32:07;;;;;;;;;40.25;35.75;;;;;17.01;63.75;102282.59;5083787;27;46723;-83
2022/04/28 08:34:33;;;;;;;;;43.25;35.50;;;;;17.19;63.54;102292.94;5082238;27;45478;-87
2022/04/28 08:37:08;;;;;;;;;40.25;35.00;;;;;17.22;62.48;102280.00;5089501;27;45339;-86
2022/04/28 08:39:43;;;;;;;;;35.75;33.00;;;;;16.95;62.15;102224.78;5074825;27;45233;-88
2022/04/28 08:42:20;;;;;;;;;41.75;35.75;;;;;17.35;61.81;102275.22;5081499;27;47909;-86
2022/04/28 08:44:46;;;;;;;;;39.75;35.25;;;;;17.18;62.07;102241.41;5080398;27;45494;-87
2022/04/28 08:47:13;;;;;;;;;34.25;30.50;;;;;17.48;61.96;102277.50;5079181;27;45437;-81
2022/04/28 08:49:42;;;;;;;;;33.75;26.75;;;;;17.59;61.73;102284.06;5084612;27;45476;-81
2022/04/28 08:52:10;;;;;;;;;37.25;32.00;;;;;17.69;60.80;102272.25;5084104;28;46036;-84
2022/04/28 08:54:39;;;;;;;;;33.00;32.75;;;;;17.71;61.18;102262.69;5080867;27;45916;-84
2022/04/28 08:57:05;;;;;;;;;35.25;34.25;;;;;17.91;60.88;102287.03;5078974;27;45496;-82
2022/04/28 08:59:31;;;;;;;;;39.75;35.00;;;;;18.02;60.40;102297.06;5077801;27;45425;-80
2022/04/28 09:01:58;;;;;;;;;38.00;33.50;;;;;17.87;60.26;102256.31;5078562;27;45551;-79
2022/04/28 09:04:23;;;;;;;;;30.00;29.00;;;;;18.12;60.77;102296.59;5077803;27;45421;-78
2022/04/28 09:06:53;;;;;;;;;36.75;33.50;;;;;18.17;60.43;102294.13;5078889;27;45244;-79
2022/04/28 09:09:20;;;;;;;;;32.75;31.00;;;;;18.11;60.72;102279.06;5077593;27;45742;-85
2022/04/28 09:11:47;;;;;;;;;32.75;29.75;;;;;18.12;60.25;102261.63;5077731;27;46479;-79
2022/04/28 09:14:15;;;;;;;;;31.75;27.75;;;;;18.17;60.19;102257.44;5076599;28;45915;-80
2022/04/28 09:17:01;;;;;;;;;35.00;29.50;;;;;18.10;59.16;102249.34;5083217;27;45527;-91
2022/04/28 09:19:33;;;;;;;;;32.25;29.75;;;;;18.29;58.77;102284.09;5076849;27;45558;-79
2022/04/28 09:22:09;;;;;;;;;27.50;25.75;;;;;18.25;59.05;102271.72;5078563;28;45487;-81
2022/04/28 09:24:42;;;;;;;;;33.00;31.25;;;;;18.22;58.73;102264.63;5074659;27;45718;-83
2022/04/28 09:27:08;;;;;;;;;32.00;30.00;;;;;17.99;58.66;102214.00;5077941;27;45350;-82
2022/04/28 09:29:43;;;;;;;;;33.00;29.25;;;;;18.32;59.05;102272.81;5079071;27;45319;-79
2022/04/28 09:32:11;;;;;;;;;33.25;28.75;;;;;18.27;58.78;102267.41;5080609;27;46326;-79
2022/04/28 09:34:47;;;;;;;;;30.25;28.50;;;;;18.30;59.16;102261.41;5079906;27;45375;-81
2022/04/28 09:37:21;;;;;;;;;30.25;28.25;;;;;18.43;58.95;102265.34;5078433;27;45461;-78
2022/04/28 09:42:40;;;;;;;;;29.75;26.50;;;;;18.59;58.19;102264.16;5082564;27;45705;-80
2022/04/28 09:45:14;;;;;;;;;29.25;25.75;;;;;18.59;58.18;102245.81;5081083;27;45443;-82
2022/04/28 09:47:40;;;;;;;;;28.00;26.25;;;;;18.71;57.84;102259.34;5078254;27;45498;-84
2022/04/28 09:50:15;;;;;;;;;30.50;28.00;;;;;18.67;57.92;102229.50;5078233;28;45447;-86
2022/04/28 09:52:44;;;;;;;;;27.00;24.00;;;;;18.91;57.11;102243.38;5077164;27;45436;-81
2022/04/28 09:55:11;;;;;;;;;32.00;25.25;;;;;18.81;56.92;102208.97;5078067;27;45901;-85
2022/04/28 09:57:37;;;;;;;;;23.00;21.75;;;;;18.81;57.31;102198.47;5078272;27;45403;-84
2022/04/28 10:00:03;;;;;;;;;29.50;27.25;;;;;19.02;57.07;102221.06;5078197;27;45283;-84
2022/04/28 10:02:29;;;;;;;;;29.50;24.25;;;;;19.32;56.74;102255.28;5077869;27;46555;-83
2022/04/28 10:04:56;;;;;;;;;26.25;22.75;;;;;19.42;55.74;102251.19;5077451;27;45472;-82
2022/04/28 10:07:23;;;;;;;;;24.00;24.00;;;;;19.41;55.50;102236.28;5075678;27;45458;-83
2022/04/28 10:09:51;;;;;;;;;21.50;21.25;;;;;19.57;54.75;102257.78;5078273;27;45492;-85
2022/04/28 10:12:21;;;;;;;;;30.50;24.25;;;;;19.54;53.98;102239.28;5082151;27;46672;-83
2022/04/28 10:14:48;;;;;;;;;23.75;21.25;;;;;19.69;53.70;102246.75;5079895;27;45823;-84
2022/04/28 10:17:31;;;;;;;;;25.75;25.00;;;;;19.71;54.32;102245.06;5079450;27;45460;-82
2022/04/28 10:20:05;;;;;;;;;23.75;21.00;;;;;19.64;54.06;102212.44;5076037;27;45522;-80
2022/04/28 10:22:36;;;;;;;;;24.00;20.25;;;;;19.88;53.78;102229.81;5077464;27;46720;-81
2022/04/28 10:33:26;;;;;;;;;22.50;21.25;;;;;20.27;52.62;102231.78;5078479;28;45346;-83
2022/04/28 10:35:57;;;;;;;;;21.25;18.25;;;;;20.21;51.59;102208.84;5080160;27;45499;-84
2022/04/28 10:38:24;;;;;;;;;17.50;16.50;;;;;20.34;50.57;102225.88;5077652;27;45445;-83
2022/04/28 10:41:01;;;;;;;;;17.50;17.50;;;;;20.37;49.03;102220.66;5080026;27;45542;-81
2022/04/28 10:43:37;;;;;;;;;14.25;14.25;;;;;20.26;48.17;102201.97;5078737;28;46673;-83
2022/04/28 10:46:09;;;;;;;;;13.00;13.00;;;;;20.38;46.19;102224.19;5076982;27;45775;-81
2022/04/28 10:48:46;;;;;;;;;13.00;13.00;;;;;20.40;45.74;102220.75;5077926;27;45821;-83
2022/04/28 10:51:22;;;;;;;;;13.00;12.25;;;;;20.40;45.17;102218.13;5080492;27;45483;-81
2022/04/28 10:53:59;;;;;;;;;14.00;14.00;;;;;20.14;45.02;102175.34;5079958;27;46395;-83
2022/04/28 10:56:44;;;;;;;;;14.50;13.75;;;;;20.25;44.65;102172.97;5080450;27;45751;-81
2022/04/28 10:59:37;;;;;;;;;12.75;12.00;;;;;20.57;44.51;102209.81;5080048;27;45468;-81
2022/04/28 11:02:15;;;;;;;;;12.00;12.00;;;;;20.67;44.31;102203.91;5084166;28;45420;-83
2022/04/28 11:05:04;;;;;;;;;13.75;12.75;;;;;20.75;44.54;102208.50;5081446;27;45229;-83
2022/04/28 11:07:31;;;;;;;;;12.50;12.50;;;;;20.89;42.95;102196.59;5078990;27;45714;-84
2022/04/28 11:10:00;;;;;;;;;8.25;6.50;;;;;20.82;43.03;102155.16;5076759;27;45304;-82
2022/04/28 11:12:34;;;;;;;;;12.50;11.00;;;;;21.07;41.86;102182.06;5077146;27;45497;-84
2022/04/28 11:15:12;;;;;;;;;13.25;11.50;;;;;21.17;42.42;102181.41;5077969;27;46238;-84
2022/04/28 11:17:39;;;;;;;;;11.50;10.50;;;;;21.48;41.70;102219.00;5077266;28;45900;-82
2022/04/28 11:20:13;;;;;;;;;14.25;12.75;;;;;21.58;40.98;102212.19;5075469;28;45497;-80
2022/04/28 11:22:44;;;;;;;;;14.75;12.75;;;;;21.56;41.62;102200.72;5077097;27;45464;-81
2022/04/28 11:25:14;;;;;;;;;12.25;10.25;;;;;21.59;41.40;102204.34;5076878;28;46891;-80
2022/04/28 11:27:41;;;;;;;;;11.50;11.00;;;;;21.56;41.35;102201.59;5078039;27;46004;-83
2022/04/28 11:30:12;;;;;;;;;11.00;10.00;;;;;21.60;40.40;102208.75;5077632;27;45272;-81
2022/04/28 11:32:52;;;;;;;;;15.00;12.75;;;;;21.73;39.63;102238.88;5078108;28;45489;-83
2022/04/28 11:35:19;;;;;;;;;9.75;9.75;;;;;21.56;40.37;102196.31;5077945;27;46157;-86
2022/04/28 11:37:46;;;;;;;;;11.25;9.00;;;;;21.69;39.12;102229.16;5078100;27;45439;-79